sensor_id;sensor_type;location;lat;lon;timestamp;temperature;humidity
17172;DHT22;8701;50.150;8.756;2022-08-05T00:01:18;27.30;84.50
17172;DHT22;8701;50.150;8.756;2022-08-05T00:05:21;27.10;85.30
17172;DHT22;8701;50.150;8.756;2022-08-05T00:09:25;27.20;85.00
17172;DHT22;8701;50.150;8.756;2022-08-05T00:13:29;27.10;86.40
17172;DHT22;8701;50.150;8.756;2022-08-05T00:17:32;27.00;85.90
17172;DHT22;8701;50.150;8.756;2022-08-05T00:21:34;27.00;86.90
17172;DHT22;8701;50.150;8.756;2022-08-05T00:25:38;26.90;86.40
17172;DHT22;8701;50.150;8.756;2022-08-05T00:29:40;26.80;87.70
17172;DHT22;8701;50.150;8.756;2022-08-05T00:33:42;26.80;87.60
17172;DHT22;8701;50.150;8.756;2022-08-05T00:37:45;26.70;89.00
17172;DHT22;8701;50.150;8.756;2022-08-05T00:41:48;26.80;89.00
17172;DHT22;8701;50.150;8.756;2022-08-05T00:45:51;26.70;89.50
17172;DHT22;8701;50.150;8.756;2022-08-05T00:49:53;26.60;90.00
17172;DHT22;8701;50.150;8.756;2022-08-05T00:53:56;26.80;91.00
17172;DHT22;8701;50.150;8.756;2022-08-05T00:58:00;26.50;91.40
17172;DHT22;8701;50.150;8.756;2022-08-05T01:02:02;26.50;91.10
17172;DHT22;8701;50.150;8.756;2022-08-05T01:06:05;26.50;91.50
17172;DHT22;8701;50.150;8.756;2022-08-05T01:10:09;26.40;92.60
17172;DHT22;8701;50.150;8.756;2022-08-05T01:14:22;26.40;91.80
17172;DHT22;8701;50.150;8.756;2022-08-05T01:18:31;26.30;91.90
17172;DHT22;8701;50.150;8.756;2022-08-05T01:22:55;26.30;92.40
17172;DHT22;8701;50.150;8.756;2022-08-05T01:27:05;26.30;92.90
17172;DHT22;8701;50.150;8.756;2022-08-05T01:31:18;26.30;92.10
17172;DHT22;8701;50.150;8.756;2022-08-05T01:35:26;26.30;96.40
17172;DHT22;8701;50.150;8.756;2022-08-05T01:39:30;26.20;99.90
17172;DHT22;8701;50.150;8.756;2022-08-05T01:43:33;26.10;99.90
17172;DHT22;8701;50.150;8.756;2022-08-05T01:47:39;26.00;99.90
17172;DHT22;8701;50.150;8.756;2022-08-05T01:51:42;26.10;99.90
17172;DHT22;8701;50.150;8.756;2022-08-05T01:55:45;25.80;99.90
17172;DHT22;8701;50.150;8.756;2022-08-05T01:59:50;25.80;99.90
17172;DHT22;8701;50.150;8.756;2022-08-05T02:03:56;25.70;99.90
17172;DHT22;8701;50.150;8.756;2022-08-05T02:07:59;25.80;99.90
17172;DHT22;8701;50.150;8.756;2022-08-05T02:12:05;25.70;99.90
17172;DHT22;8701;50.150;8.756;2022-08-05T02:16:14;25.70;99.90
17172;DHT22;8701;50.150;8.756;2022-08-05T02:20:22;25.60;99.90
17172;DHT22;8701;50.150;8.756;2022-08-05T02:24:29;25.60;99.90
17172;DHT22;8701;50.150;8.756;2022-08-05T02:28:36;25.50;99.90
17172;DHT22;8701;50.150;8.756;2022-08-05T02:32:40;25.40;99.90
17172;DHT22;8701;50.150;8.756;2022-08-05T02:36:48;25.40;99.90
17172;DHT22;8701;50.150;8.756;2022-08-05T02:40:52;25.30;99.90
17172;DHT22;8701;50.150;8.756;2022-08-05T02:44:56;25.20;99.90
17172;DHT22;8701;50.150;8.756;2022-08-05T02:49:00;25.10;99.90
17172;DHT22;8701;50.150;8.756;2022-08-05T02:53:04;25.00;99.90
17172;DHT22;8701;50.150;8.756;2022-08-05T02:57:09;25.00;99.90
17172;DHT22;8701;50.150;8.756;2022-08-05T03:01:16;24.90;99.90
17172;DHT22;8701;50.150;8.756;2022-08-05T03:05:19;24.70;99.90
17172;DHT22;8701;50.150;8.756;2022-08-05T03:09:23;24.50;99.90
17172;DHT22;8701;50.150;8.756;2022-08-05T03:13:25;24.40;99.90
17172;DHT22;8701;50.150;8.756;2022-08-05T03:17:28;24.10;99.90
17172;DHT22;8701;50.150;8.756;2022-08-05T03:21:30;24.20;99.90
17172;DHT22;8701;50.150;8.756;2022-08-05T03:25:35;24.10;99.90
17172;DHT22;8701;50.150;8.756;2022-08-05T03:29:39;24.00;99.90
17172;DHT22;8701;50.150;8.756;2022-08-05T03:33:42;23.90;99.90
17172;DHT22;8701;50.150;8.756;2022-08-05T03:37:44;24.00;99.90
17172;DHT22;8701;50.150;8.756;2022-08-05T03:41:48;23.90;99.90
17172;DHT22;8701;50.150;8.756;2022-08-05T03:45:50;23.90;99.90
17172;DHT22;8701;50.150;8.756;2022-08-05T03:49:54;23.80;99.90
17172;DHT22;8701;50.150;8.756;2022-08-05T03:53:59;23.80;99.90
17172;DHT22;8701;50.150;8.756;2022-08-05T03:58:08;23.80;99.90
17172;DHT22;8701;50.150;8.756;2022-08-05T04:02:11;23.60;99.90
17172;DHT22;8701;50.150;8.756;2022-08-05T04:06:17;23.50;99.90
17172;DHT22;8701;50.150;8.756;2022-08-05T04:10:20;23.70;99.90
17172;DHT22;8701;50.150;8.756;2022-08-05T04:14:24;23.60;99.90
17172;DHT22;8701;50.150;8.756;2022-08-05T04:18:27;23.60;99.90
17172;DHT22;8701;50.150;8.756;2022-08-05T04:22:30;23.50;99.90
17172;DHT22;8701;50.150;8.756;2022-08-05T04:26:32;23.50;99.90
17172;DHT22;8701;50.150;8.756;2022-08-05T04:30:36;23.50;99.90
17172;DHT22;8701;50.150;8.756;2022-08-05T04:34:38;23.40;99.90
17172;DHT22;8701;50.150;8.756;2022-08-05T04:38:41;23.30;99.90
17172;DHT22;8701;50.150;8.756;2022-08-05T04:42:44;23.40;99.90
17172;DHT22;8701;50.150;8.756;2022-08-05T04:46:47;23.20;99.90
17172;DHT22;8701;50.150;8.756;2022-08-05T04:50:50;23.20;99.90
17172;DHT22;8701;50.150;8.756;2022-08-05T04:54:52;23.30;99.90
17172;DHT22;8701;50.150;8.756;2022-08-05T04:58:54;23.30;99.90
17172;DHT22;8701;50.150;8.756;2022-08-05T05:02:58;23.30;99.90
17172;DHT22;8701;50.150;8.756;2022-08-05T05:07:01;23.20;99.90
17172;DHT22;8701;50.150;8.756;2022-08-05T05:11:03;23.20;99.90
17172;DHT22;8701;50.150;8.756;2022-08-05T05:15:06;23.30;99.90
17172;DHT22;8701;50.150;8.756;2022-08-05T05:24:33;23.20;99.90
17172;DHT22;8701;50.150;8.756;2022-08-05T05:28:35;23.30;99.90
17172;DHT22;8701;50.150;8.756;2022-08-05T05:32:38;23.30;99.90
17172;DHT22;8701;50.150;8.756;2022-08-05T05:36:40;23.40;99.90
17172;DHT22;8701;50.150;8.756;2022-08-05T05:40:44;23.40;99.90
17172;DHT22;8701;50.150;8.756;2022-08-05T05:44:46;23.60;99.90
17172;DHT22;8701;50.150;8.756;2022-08-05T05:48:48;23.70;99.90
17172;DHT22;8701;50.150;8.756;2022-08-05T05:52:51;23.90;99.90
17172;DHT22;8701;50.150;8.756;2022-08-05T05:57:04;23.70;99.90
17172;DHT22;8701;50.150;8.756;2022-08-05T06:01:15;23.90;99.90
17172;DHT22;8701;50.150;8.756;2022-08-05T06:05:23;24.00;99.90
17172;DHT22;8701;50.150;8.756;2022-08-05T06:09:28;24.70;99.90
17172;DHT22;8701;50.150;8.756;2022-08-05T06:13:44;24.10;99.90
17172;DHT22;8701;50.150;8.756;2022-08-05T06:18:17;24.20;99.90
17172;DHT22;8701;50.150;8.756;2022-08-05T06:22:33;24.20;99.90
17172;DHT22;8701;50.150;8.756;2022-08-05T06:26:37;24.50;99.90
17172;DHT22;8701;50.150;8.756;2022-08-05T06:30:49;24.40;99.90
17172;DHT22;8701;50.150;8.756;2022-08-05T06:34:53;24.80;99.90
17172;DHT22;8701;50.150;8.756;2022-08-05T06:38:55;24.70;99.90
17172;DHT22;8701;50.150;8.756;2022-08-05T06:43:16;24.70;99.90
17172;DHT22;8701;50.150;8.756;2022-08-05T06:47:29;24.60;99.90
17172;DHT22;8701;50.150;8.756;2022-08-05T06:51:42;25.00;99.90
17172;DHT22;8701;50.150;8.756;2022-08-05T06:55:48;25.20;99.90
17172;DHT22;8701;50.150;8.756;2022-08-05T06:59:51;25.30;99.90
17172;DHT22;8701;50.150;8.756;2022-08-05T07:03:55;25.30;99.90
17172;DHT22;8701;50.150;8.756;2022-08-05T07:08:03;25.30;99.90
17172;DHT22;8701;50.150;8.756;2022-08-05T07:12:07;25.10;99.90
17172;DHT22;8701;50.150;8.756;2022-08-05T07:16:30;25.00;99.90
17172;DHT22;8701;50.150;8.756;2022-08-05T07:25:58;24.70;99.90
17172;DHT22;8701;50.150;8.756;2022-08-05T07:30:01;24.60;99.90
17172;DHT22;8701;50.150;8.756;2022-08-05T07:34:03;24.50;99.90
17172;DHT22;8701;50.150;8.756;2022-08-05T07:38:06;24.60;99.90
17172;DHT22;8701;50.150;8.756;2022-08-05T07:42:09;24.60;99.90
17172;DHT22;8701;50.150;8.756;2022-08-05T07:46:12;24.70;99.90
17172;DHT22;8701;50.150;8.756;2022-08-05T07:50:15;24.70;99.90
17172;DHT22;8701;50.150;8.756;2022-08-05T07:54:18;24.70;99.90
17172;DHT22;8701;50.150;8.756;2022-08-05T07:58:23;24.60;99.90
17172;DHT22;8701;50.150;8.756;2022-08-05T08:02:26;24.70;99.90
17172;DHT22;8701;50.150;8.756;2022-08-05T08:06:34;24.70;99.90
17172;DHT22;8701;50.150;8.756;2022-08-05T08:10:37;24.80;99.90
17172;DHT22;8701;50.150;8.756;2022-08-05T08:14:41;24.90;99.90
17172;DHT22;8701;50.150;8.756;2022-08-05T08:18:44;24.70;99.90
17172;DHT22;8701;50.150;8.756;2022-08-05T08:22:50;24.70;99.90
17172;DHT22;8701;50.150;8.756;2022-08-05T08:26:58;24.50;99.90
17172;DHT22;8701;50.150;8.756;2022-08-05T08:31:01;24.50;99.90
17172;DHT22;8701;50.150;8.756;2022-08-05T08:35:05;24.50;99.90
17172;DHT22;8701;50.150;8.756;2022-08-05T08:39:07;24.60;99.90
17172;DHT22;8701;50.150;8.756;2022-08-05T08:43:11;24.70;99.90
17172;DHT22;8701;50.150;8.756;2022-08-05T08:47:18;24.70;99.90
17172;DHT22;8701;50.150;8.756;2022-08-05T08:51:26;24.60;99.90
17172;DHT22;8701;50.150;8.756;2022-08-05T08:55:33;24.70;99.90
17172;DHT22;8701;50.150;8.756;2022-08-05T08:59:37;25.00;99.90
17172;DHT22;8701;50.150;8.756;2022-08-05T09:03:41;25.50;99.90
17172;DHT22;8701;50.150;8.756;2022-08-05T09:07:44;26.00;99.90
17172;DHT22;8701;50.150;8.756;2022-08-05T09:11:47;26.30;99.90
17172;DHT22;8701;50.150;8.756;2022-08-05T09:15:50;26.30;99.90
17172;DHT22;8701;50.150;8.756;2022-08-05T09:19:55;26.30;99.90
17172;DHT22;8701;50.150;8.756;2022-08-05T09:24:02;26.30;99.90
17172;DHT22;8701;50.150;8.756;2022-08-05T09:28:13;26.10;99.90
17172;DHT22;8701;50.150;8.756;2022-08-05T09:32:33;26.10;99.90
17172;DHT22;8701;50.150;8.756;2022-08-05T09:36:42;25.80;99.90
17172;DHT22;8701;50.150;8.756;2022-08-05T09:40:44;25.80;99.90
17172;DHT22;8701;50.150;8.756;2022-08-05T09:44:48;25.80;99.90
17172;DHT22;8701;50.150;8.756;2022-08-05T09:48:51;25.90;99.90
17172;DHT22;8701;50.150;8.756;2022-08-05T09:52:57;26.20;99.90
17172;DHT22;8701;50.150;8.756;2022-08-05T09:57:00;26.20;99.90
17172;DHT22;8701;50.150;8.756;2022-08-05T10:01:04;26.40;99.90
17172;DHT22;8701;50.150;8.756;2022-08-05T10:05:09;26.30;99.90
17172;DHT22;8701;50.150;8.756;2022-08-05T10:09:15;26.30;99.90
17172;DHT22;8701;50.150;8.756;2022-08-05T10:13:26;26.40;99.90
17172;DHT22;8701;50.150;8.756;2022-08-05T10:17:29;26.40;99.90
17172;DHT22;8701;50.150;8.756;2022-08-05T10:21:31;26.40;99.90
17172;DHT22;8701;50.150;8.756;2022-08-05T10:25:35;26.30;99.90
17172;DHT22;8701;50.150;8.756;2022-08-05T10:29:37;26.20;99.90
17172;DHT22;8701;50.150;8.756;2022-08-05T10:33:41;26.30;99.90
17172;DHT22;8701;50.150;8.756;2022-08-05T10:37:46;26.40;99.90
17172;DHT22;8701;50.150;8.756;2022-08-05T10:41:58;26.90;99.90
17172;DHT22;8701;50.150;8.756;2022-08-05T10:46:04;27.30;99.90
17172;DHT22;8701;50.150;8.756;2022-08-05T10:50:08;27.50;99.90
17172;DHT22;8701;50.150;8.756;2022-08-05T10:54:16;27.40;99.90
17172;DHT22;8701;50.150;8.756;2022-08-05T10:58:20;27.30;99.90
17172;DHT22;8701;50.150;8.756;2022-08-05T11:02:22;27.30;99.90
17172;DHT22;8701;50.150;8.756;2022-08-05T11:06:25;27.60;99.90
17172;DHT22;8701;50.150;8.756;2022-08-05T11:10:27;27.90;99.90
17172;DHT22;8701;50.150;8.756;2022-08-05T11:14:32;28.20;99.90
17172;DHT22;8701;50.150;8.756;2022-08-05T11:18:36;28.40;99.90
17172;DHT22;8701;50.150;8.756;2022-08-05T11:22:41;28.50;99.90
17172;DHT22;8701;50.150;8.756;2022-08-05T11:26:44;28.30;99.90
17172;DHT22;8701;50.150;8.756;2022-08-05T11:31:21;28.40;99.90
17172;DHT22;8701;50.150;8.756;2022-08-05T11:35:52;28.50;99.90
17172;DHT22;8701;50.150;8.756;2022-08-05T11:39:55;28.10;99.90
17172;DHT22;8701;50.150;8.756;2022-08-05T11:43:59;27.90;99.90
17172;DHT22;8701;50.150;8.756;2022-08-05T11:48:08;27.70;99.90
17172;DHT22;8701;50.150;8.756;2022-08-05T11:52:10;27.70;99.90
17172;DHT22;8701;50.150;8.756;2022-08-05T11:56:14;27.70;99.90
17172;DHT22;8701;50.150;8.756;2022-08-05T12:00:26;28.10;99.90
17172;DHT22;8701;50.150;8.756;2022-08-05T12:04:38;28.60;99.90
17172;DHT22;8701;50.150;8.756;2022-08-05T12:08:43;29.40;99.90
17172;DHT22;8701;50.150;8.756;2022-08-05T12:12:46;30.00;99.90
17172;DHT22;8701;50.150;8.756;2022-08-05T12:16:48;30.30;99.90
17172;DHT22;8701;50.150;8.756;2022-08-05T12:20:52;30.50;99.90
17172;DHT22;8701;50.150;8.756;2022-08-05T12:24:54;30.70;99.90
17172;DHT22;8701;50.150;8.756;2022-08-05T12:28:57;31.10;99.90
17172;DHT22;8701;50.150;8.756;2022-08-05T12:33:00;31.30;99.90
17172;DHT22;8701;50.150;8.756;2022-08-05T12:37:10;31.50;99.90
17172;DHT22;8701;50.150;8.756;2022-08-05T12:41:15;31.70;99.50
17172;DHT22;8701;50.150;8.756;2022-08-05T12:45:18;31.50;99.70
17172;DHT22;8701;50.150;8.756;2022-08-05T12:49:21;31.10;99.50
17172;DHT22;8701;50.150;8.756;2022-08-05T12:53:27;31.10;99.90
17172;DHT22;8701;50.150;8.756;2022-08-05T12:57:36;30.50;99.90
17172;DHT22;8701;50.150;8.756;2022-08-05T13:01:39;30.40;99.90
17172;DHT22;8701;50.150;8.756;2022-08-05T13:05:41;30.10;99.90
17172;DHT22;8701;50.150;8.756;2022-08-05T13:09:49;30.20;99.90
17172;DHT22;8701;50.150;8.756;2022-08-05T13:13:52;30.60;99.90
17172;DHT22;8701;50.150;8.756;2022-08-05T13:17:57;30.50;99.90
17172;DHT22;8701;50.150;8.756;2022-08-05T13:22:01;30.60;99.40
17172;DHT22;8701;50.150;8.756;2022-08-05T13:26:04;30.30;99.90
17172;DHT22;8701;50.150;8.756;2022-08-05T13:30:08;30.00;99.70
17172;DHT22;8701;50.150;8.756;2022-08-05T13:34:11;29.80;99.90
17172;DHT22;8701;50.150;8.756;2022-08-05T13:38:16;29.60;99.90
17172;DHT22;8701;50.150;8.756;2022-08-05T13:42:22;29.30;99.90
17172;DHT22;8701;50.150;8.756;2022-08-05T13:46:24;29.30;99.90
17172;DHT22;8701;50.150;8.756;2022-08-05T13:50:27;29.30;99.90
17172;DHT22;8701;50.150;8.756;2022-08-05T13:54:30;29.40;99.80
17172;DHT22;8701;50.150;8.756;2022-08-05T13:58:36;29.30;99.90
17172;DHT22;8701;50.150;8.756;2022-08-05T14:02:38;29.20;99.90
17172;DHT22;8701;50.150;8.756;2022-08-05T14:06:40;28.90;99.90
17172;DHT22;8701;50.150;8.756;2022-08-05T14:10:43;28.70;99.90
17172;DHT22;8701;50.150;8.756;2022-08-05T14:14:47;28.60;99.90
17172;DHT22;8701;50.150;8.756;2022-08-05T14:18:50;28.50;99.90
17172;DHT22;8701;50.150;8.756;2022-08-05T14:22:52;28.50;99.90
17172;DHT22;8701;50.150;8.756;2022-08-05T14:26:55;28.60;99.90
17172;DHT22;8701;50.150;8.756;2022-08-05T14:30:59;28.90;99.90
17172;DHT22;8701;50.150;8.756;2022-08-05T14:35:02;28.80;99.90
17172;DHT22;8701;50.150;8.756;2022-08-05T14:39:04;28.50;99.90
17172;DHT22;8701;50.150;8.756;2022-08-05T14:43:07;28.40;99.90
17172;DHT22;8701;50.150;8.756;2022-08-05T14:47:11;28.40;99.90
17172;DHT22;8701;50.150;8.756;2022-08-05T14:51:13;28.60;99.90
17172;DHT22;8701;50.150;8.756;2022-08-05T14:55:16;28.60;99.90
17172;DHT22;8701;50.150;8.756;2022-08-05T14:59:18;28.50;99.90
17172;DHT22;8701;50.150;8.756;2022-08-05T15:03:23;28.60;99.90
17172;DHT22;8701;50.150;8.756;2022-08-05T15:07:25;28.50;99.90
17172;DHT22;8701;50.150;8.756;2022-08-05T15:11:28;28.20;99.90
17172;DHT22;8701;50.150;8.756;2022-08-05T15:15:31;27.90;99.90
17172;DHT22;8701;50.150;8.756;2022-08-05T15:19:34;27.40;99.90
17172;DHT22;8701;50.150;8.756;2022-08-05T15:23:37;27.40;99.90
17172;DHT22;8701;50.150;8.756;2022-08-05T15:27:39;27.20;99.90
17172;DHT22;8701;50.150;8.756;2022-08-05T15:31:42;26.90;99.90
17172;DHT22;8701;50.150;8.756;2022-08-05T15:35:45;26.80;99.90
17172;DHT22;8701;50.150;8.756;2022-08-05T15:39:48;26.70;99.90
17172;DHT22;8701;50.150;8.756;2022-08-05T15:43:51;26.70;99.90
17172;DHT22;8701;50.150;8.756;2022-08-05T15:47:53;26.50;99.90
17172;DHT22;8701;50.150;8.756;2022-08-05T15:51:57;26.40;99.90
17172;DHT22;8701;50.150;8.756;2022-08-05T15:55:59;26.40;99.90
17172;DHT22;8701;50.150;8.756;2022-08-05T16:00:03;26.30;99.90
17172;DHT22;8701;50.150;8.756;2022-08-05T16:04:07;26.10;99.90
17172;DHT22;8701;50.150;8.756;2022-08-05T16:08:11;25.90;99.90
17172;DHT22;8701;50.150;8.756;2022-08-05T16:12:14;25.90;99.90
17172;DHT22;8701;50.150;8.756;2022-08-05T16:16:17;25.90;99.90
17172;DHT22;8701;50.150;8.756;2022-08-05T16:20:20;25.90;99.90
17172;DHT22;8701;50.150;8.756;2022-08-05T16:24:24;25.90;99.90
17172;DHT22;8701;50.150;8.756;2022-08-05T16:28:38;25.80;99.90
17172;DHT22;8701;50.150;8.756;2022-08-05T16:33:09;25.60;99.90
17172;DHT22;8701;50.150;8.756;2022-08-05T16:37:16;25.70;99.90
17172;DHT22;8701;50.150;8.756;2022-08-05T16:41:21;25.80;99.90
17172;DHT22;8701;50.150;8.756;2022-08-05T16:45:24;25.40;99.90
17172;DHT22;8701;50.150;8.756;2022-08-05T16:49:26;25.40;99.90
17172;DHT22;8701;50.150;8.756;2022-08-05T16:53:28;25.30;99.90
17172;DHT22;8701;50.150;8.756;2022-08-05T16:57:32;25.30;99.90
17172;DHT22;8701;50.150;8.756;2022-08-05T17:01:36;25.30;99.90
17172;DHT22;8701;50.150;8.756;2022-08-05T17:05:38;25.30;99.90
17172;DHT22;8701;50.150;8.756;2022-08-05T17:09:40;25.30;99.90
17172;DHT22;8701;50.150;8.756;2022-08-05T17:13:45;25.30;99.90
17172;DHT22;8701;50.150;8.756;2022-08-05T17:17:47;25.30;99.90
17172;DHT22;8701;50.150;8.756;2022-08-05T17:21:50;25.30;99.90
17172;DHT22;8701;50.150;8.756;2022-08-05T17:25:52;25.30;99.90
17172;DHT22;8701;50.150;8.756;2022-08-05T17:30:37;25.20;99.90
17172;DHT22;8701;50.150;8.756;2022-08-05T17:35:15;25.20;99.90
17172;DHT22;8701;50.150;8.756;2022-08-05T17:39:20;25.20;99.90
17172;DHT22;8701;50.150;8.756;2022-08-05T17:43:29;25.00;99.90
17172;DHT22;8701;50.150;8.756;2022-08-05T17:47:37;25.20;99.90
17172;DHT22;8701;50.150;8.756;2022-08-05T17:51:47;25.10;99.90
17172;DHT22;8701;50.150;8.756;2022-08-05T17:55:57;25.10;99.90
17172;DHT22;8701;50.150;8.756;2022-08-05T18:00:35;25.00;99.90
17172;DHT22;8701;50.150;8.756;2022-08-05T18:04:42;24.90;99.90
17172;DHT22;8701;50.150;8.756;2022-08-05T18:09:03;24.90;99.90
17172;DHT22;8701;50.150;8.756;2022-08-05T18:13:47;24.90;99.90
17172;DHT22;8701;50.150;8.756;2022-08-05T18:18:29;24.70;99.90
17172;DHT22;8701;50.150;8.756;2022-08-05T18:34:48;24.30;99.90
17172;DHT22;8701;50.150;8.756;2022-08-05T18:38:57;24.10;99.90
17172;DHT22;8701;50.150;8.756;2022-08-05T19:09:47;23.40;99.90
17172;DHT22;8701;50.150;8.756;2022-08-05T19:14:02;23.30;99.90
17172;DHT22;8701;50.150;8.756;2022-08-05T19:18:04;23.60;99.90
17172;DHT22;8701;50.150;8.756;2022-08-05T19:22:07;23.10;99.90
17172;DHT22;8701;50.150;8.756;2022-08-05T19:26:11;23.10;99.90
17172;DHT22;8701;50.150;8.756;2022-08-05T19:30:14;22.90;99.90
17172;DHT22;8701;50.150;8.756;2022-08-05T19:34:16;23.40;99.90
17172;DHT22;8701;50.150;8.756;2022-08-05T19:38:18;22.80;99.90
17172;DHT22;8701;50.150;8.756;2022-08-05T21:41:56;21.00;99.90
17172;DHT22;8701;50.150;8.756;2022-08-05T21:45:58;21.10;99.90
17172;DHT22;8701;50.150;8.756;2022-08-05T21:50:01;21.00;99.90
17172;DHT22;8701;50.150;8.756;2022-08-05T21:54:04;20.90;99.90
17172;DHT22;8701;50.150;8.756;2022-08-05T21:58:07;20.90;99.90
17172;DHT22;8701;50.150;8.756;2022-08-05T22:02:10;20.80;99.90
17172;DHT22;8701;50.150;8.756;2022-08-05T22:06:12;20.90;99.90
17172;DHT22;8701;50.150;8.756;2022-08-05T22:10:17;20.70;99.90
17172;DHT22;8701;50.150;8.756;2022-08-05T22:14:20;20.60;99.90
17172;DHT22;8701;50.150;8.756;2022-08-05T22:18:23;20.60;99.90
17172;DHT22;8701;50.150;8.756;2022-08-05T22:22:25;20.60;99.90
17172;DHT22;8701;50.150;8.756;2022-08-05T22:26:27;20.60;99.90
17172;DHT22;8701;50.150;8.756;2022-08-05T22:30:49;20.50;99.90
17172;DHT22;8701;50.150;8.756;2022-08-05T22:34:51;20.50;99.90
17172;DHT22;8701;50.150;8.756;2022-08-05T22:38:53;20.50;99.90
17172;DHT22;8701;50.150;8.756;2022-08-05T22:42:56;20.40;99.90
17172;DHT22;8701;50.150;8.756;2022-08-05T22:46:59;20.40;99.90
17172;DHT22;8701;50.150;8.756;2022-08-05T22:51:02;20.30;99.90
17172;DHT22;8701;50.150;8.756;2022-08-05T22:55:06;20.20;99.90
17172;DHT22;8701;50.150;8.756;2022-08-05T22:59:09;20.20;99.90
17172;DHT22;8701;50.150;8.756;2022-08-05T23:03:13;20.10;99.90
17172;DHT22;8701;50.150;8.756;2022-08-05T23:07:15;20.00;99.90
17172;DHT22;8701;50.150;8.756;2022-08-05T23:11:17;19.90;99.90
17172;DHT22;8701;50.150;8.756;2022-08-05T23:15:20;19.80;99.90
17172;DHT22;8701;50.150;8.756;2022-08-05T23:19:23;19.80;99.90
17172;DHT22;8701;50.150;8.756;2022-08-05T23:23:26;19.70;99.90
17172;DHT22;8701;50.150;8.756;2022-08-05T23:27:28;19.60;99.90
17172;DHT22;8701;50.150;8.756;2022-08-05T23:31:30;19.60;99.90
17172;DHT22;8701;50.150;8.756;2022-08-05T23:35:34;19.60;99.90
17172;DHT22;8701;50.150;8.756;2022-08-05T23:39:36;19.60;99.90
17172;DHT22;8701;50.150;8.756;2022-08-05T23:43:39;19.50;99.90
17172;DHT22;8701;50.150;8.756;2022-08-05T23:47:42;19.50;99.90
17172;DHT22;8701;50.150;8.756;2022-08-05T23:51:45;19.30;99.90
17172;DHT22;8701;50.150;8.756;2022-08-05T23:56:05;19.40;99.90
